createdAt,value
2022-10-17T00:01:29.933Z,14.18
2022-10-17T00:07:40.097Z,14.17
2022-10-17T00:10:43.176Z,14.14
2022-10-17T00:13:47.265Z,14.09
2022-10-17T00:16:50.131Z,14.07
2022-10-17T00:19:52.551Z,14.04
2022-10-17T00:22:55.405Z,14.06
2022-10-17T00:26:02.330Z,14.01
2022-10-17T00:29:05.383Z,14.00
2022-10-17T00:32:07.994Z,13.99
2022-10-17T00:35:11.659Z,13.98
2022-10-17T00:38:14.018Z,13.94
2022-10-17T00:41:19.129Z,13.87
2022-10-17T00:44:30.619Z,13.90
2022-10-17T00:47:35.980Z,13.89
2022-10-17T00:50:41.399Z,13.85
2022-10-17T00:53:44.515Z,13.84
2022-10-17T00:56:47.882Z,13.82
2022-10-17T00:59:57.163Z,13.81
2022-10-17T01:03:00.079Z,13.77
2022-10-17T01:06:03.069Z,13.74
2022-10-17T01:09:05.615Z,13.71
2022-10-17T01:12:23.203Z,13.67
2022-10-17T01:15:37.982Z,13.66
2022-10-17T01:19:02.703Z,13.67
2022-10-17T01:22:21.588Z,13.67
2022-10-17T01:25:43.422Z,13.63
2022-10-17T01:29:19.716Z,13.60
2022-10-17T01:32:35.899Z,13.57
2022-10-17T01:35:48.196Z,13.59
2022-10-17T01:39:30.005Z,13.56
2022-10-17T01:42:53.208Z,13.57
2022-10-17T01:46:07.239Z,13.53
2022-10-17T01:49:13.321Z,13.51
2022-10-17T01:52:23.201Z,13.50
2022-10-17T01:55:31.734Z,13.45
2022-10-17T01:58:41.647Z,13.40
2022-10-17T02:01:47.124Z,13.39
2022-10-17T02:04:52.953Z,13.34
2022-10-17T02:07:55.583Z,13.34
2022-10-17T02:11:11.130Z,13.31
2022-10-17T02:14:22.710Z,13.30
2022-10-17T02:17:44.687Z,13.27
2022-10-17T02:20:56.540Z,13.25
2022-10-17T02:24:21.317Z,13.21
2022-10-17T02:27:43.906Z,13.15
2022-10-17T02:31:09.219Z,13.11
2022-10-17T02:34:29.256Z,13.09
2022-10-17T02:37:32.863Z,13.08
2022-10-17T02:40:37.962Z,13.01
2022-10-17T02:43:41.523Z,12.98
2022-10-17T02:46:55.965Z,12.96
2022-10-17T02:49:58.640Z,12.95
2022-10-17T02:53:11.765Z,12.96
2022-10-17T02:56:20.111Z,12.92
2022-10-17T02:59:27.328Z,12.89
2022-10-17T03:02:39.189Z,12.86
2022-10-17T03:05:42.023Z,12.90
2022-10-17T03:08:44.824Z,12.85
2022-10-17T03:11:47.516Z,12.88
2022-10-17T03:14:50.312Z,12.84
2022-10-17T03:17:53.478Z,12.86
2022-10-17T03:20:56.298Z,12.81
2022-10-17T03:23:59.081Z,12.78
2022-10-17T03:27:01.811Z,12.77
2022-10-17T03:30:05.679Z,12.73
2022-10-17T03:33:08.560Z,12.70
2022-10-17T03:36:15.180Z,12.70
2022-10-17T03:39:18.016Z,12.67
2022-10-17T03:42:20.977Z,12.71
2022-10-17T03:45:24.416Z,12.71
2022-10-17T03:48:28.279Z,12.70
2022-10-17T03:51:34.136Z,12.74
2022-10-17T03:54:37.182Z,12.70
2022-10-17T03:57:42.156Z,12.63
2022-10-17T04:00:48.454Z,12.60
2022-10-17T04:03:52.318Z,12.62
2022-10-17T04:06:54.793Z,12.62
2022-10-17T04:09:57.958Z,12.60
2022-10-17T04:13:00.311Z,12.59
2022-10-17T04:16:07.216Z,12.62
2022-10-17T04:19:13.584Z,12.59
2022-10-17T04:22:16.793Z,12.59
2022-10-17T04:25:19.208Z,12.59
2022-10-17T04:28:22.273Z,12.54
2022-10-17T04:31:25.089Z,12.54
2022-10-17T04:34:29.410Z,12.52
2022-10-17T04:37:32.116Z,12.50
2022-10-17T04:40:36.486Z,12.48
2022-10-17T04:43:41.047Z,12.45
2022-10-17T04:46:44.075Z,12.42
2022-10-17T04:49:46.815Z,12.42
2022-10-17T04:52:50.141Z,12.40
2022-10-17T04:55:52.629Z,12.39
2022-10-17T04:58:55.764Z,12.39
2022-10-17T05:01:58.230Z,12.38
2022-10-17T05:05:01.429Z,12.39
2022-10-17T05:08:05.781Z,12.39
2022-10-17T05:11:39.132Z,12.37
2022-10-17T05:14:41.812Z,12.36
2022-10-17T05:17:44.771Z,12.39
2022-10-17T05:20:47.650Z,12.38
2022-10-17T05:23:51.359Z,12.44
2022-10-17T05:26:53.774Z,12.47
2022-10-17T05:29:56.904Z,12.52
2022-10-17T05:32:59.718Z,12.52
2022-10-17T05:36:03.284Z,12.51
2022-10-17T05:39:05.811Z,12.64
2022-10-17T05:42:09.639Z,12.67
2022-10-17T05:45:13.908Z,12.60
2022-10-17T05:48:17.342Z,12.63
2022-10-17T05:51:20.351Z,12.75
2022-10-17T05:54:27.357Z,12.79
2022-10-17T05:57:29.954Z,12.88
2022-10-17T06:00:33.486Z,12.86
2022-10-17T06:03:36.754Z,12.98
2022-10-17T06:06:40.483Z,12.94
2022-10-17T06:09:43.780Z,12.95
2022-10-17T06:12:47.720Z,13.04
2022-10-17T06:15:50.796Z,13.10
2022-10-17T06:18:54.001Z,13.13
2022-10-17T06:21:56.940Z,13.26
2022-10-17T06:25:00.439Z,13.23
2022-10-17T06:28:03.899Z,13.39
2022-10-17T06:31:12.459Z,13.37
2022-10-17T06:34:16.245Z,13.43
2022-10-17T06:37:19.859Z,13.60
2022-10-17T06:40:23.063Z,13.62
2022-10-17T06:43:28.125Z,13.75
2022-10-17T06:46:31.614Z,13.87
2022-10-17T06:49:34.393Z,14.08
2022-10-17T06:52:37.492Z,14.11
2022-10-17T06:55:43.113Z,14.19
2022-10-17T06:58:47.065Z,14.31
2022-10-17T07:01:50.169Z,14.43
2022-10-17T07:04:53.242Z,14.55
2022-10-17T07:07:56.023Z,14.69
2022-10-17T07:10:59.187Z,14.89
2022-10-17T07:14:02.754Z,15.18
2022-10-17T07:17:05.662Z,15.60
2022-10-17T07:20:09.362Z,15.95
2022-10-17T07:23:12.749Z,16.24
2022-10-17T07:26:17.884Z,16.59
2022-10-17T07:29:21.144Z,17.02
2022-10-17T07:32:25.593Z,17.29
2022-10-17T07:35:28.775Z,17.79
2022-10-17T07:38:32.367Z,18.21
2022-10-17T07:41:35.632Z,18.87
2022-10-17T07:44:39.935Z,20.60
2022-10-17T07:47:43.138Z,23.28
2022-10-17T07:50:46.261Z,25.35
2022-10-17T07:53:49.455Z,27.51
2022-10-17T07:56:52.137Z,28.23
2022-10-17T07:59:54.993Z,29.99
2022-10-17T08:02:57.635Z,32.63
2022-10-17T08:06:01.840Z,36.07
2022-10-17T08:09:04.715Z,38.63
2022-10-17T08:12:07.524Z,39.92
2022-10-17T08:15:11.114Z,40.04
2022-10-17T08:18:15.072Z,39.60
2022-10-17T08:21:17.688Z,39.06
2022-10-17T08:24:20.944Z,39.06
2022-10-17T08:27:26.221Z,39.79
2022-10-17T08:30:30.753Z,41.39
2022-10-17T08:33:33.839Z,43.85
2022-10-17T08:36:36.782Z,46.13
2022-10-17T08:39:41.241Z,47.81
2022-10-17T08:43:23.981Z,49.17
2022-10-17T08:46:35.145Z,49.62
2022-10-17T08:49:47.901Z,49.76
2022-10-17T08:53:10.729Z,50.14
2022-10-17T08:56:55.070Z,50.14
2022-10-17T08:59:57.902Z,49.79
2022-10-17T09:03:15.700Z,49.24
2022-10-17T09:06:25.244Z,48.74
2022-10-17T09:10:05.966Z,46.26
2022-10-17T09:13:17.122Z,43.50
2022-10-17T09:16:25.805Z,40.76
2022-10-17T09:19:51.226Z,38.25
2022-10-17T09:23:01.601Z,36.21
2022-10-17T09:26:04.454Z,34.82
2022-10-17T09:29:24.951Z,33.84
2022-10-17T09:32:28.991Z,33.09
2022-10-17T09:35:32.036Z,32.90
2022-10-17T09:38:47.780Z,32.59
2022-10-17T09:41:53.758Z,32.33
2022-10-17T09:45:05.192Z,32.06
2022-10-17T09:48:38.443Z,31.37
2022-10-17T09:51:41.341Z,30.98
2022-10-17T09:55:06.937Z,30.53
2022-10-17T09:58:11.355Z,27.99
2022-10-17T10:01:26.470Z,27.60
2022-10-17T10:04:30.413Z,28.21
2022-10-17T10:07:40.089Z,28.63
2022-10-17T10:10:44.345Z,28.44
2022-10-17T10:13:48.813Z,28.20
2022-10-17T10:16:53.800Z,28.21
2022-10-17T10:19:56.678Z,28.55
2022-10-17T10:23:18.298Z,28.66
2022-10-17T10:26:27.560Z,29.01
2022-10-17T10:29:35.673Z,29.06
2022-10-17T10:32:38.677Z,29.77
2022-10-17T10:35:41.713Z,30.10
2022-10-17T10:38:54.516Z,30.40
2022-10-17T10:41:57.747Z,30.18
2022-10-17T10:45:19.148Z,30.00
2022-10-17T10:48:35.084Z,29.99
2022-10-17T10:51:44.707Z,30.07
2022-10-17T10:55:02.931Z,30.07
2022-10-17T10:58:27.180Z,30.20
2022-10-17T11:01:52.883Z,29.79
2022-10-17T11:04:58.025Z,29.71
2022-10-17T11:08:07.516Z,29.50
2022-10-17T11:11:28.572Z,29.48
2022-10-17T11:14:43.575Z,29.05
2022-10-17T11:17:57.000Z,28.95
2022-10-17T11:21:06.296Z,28.94
2022-10-17T11:24:25.546Z,28.77
2022-10-17T11:27:30.428Z,28.88
2022-10-17T11:31:07.849Z,29.05
2022-10-17T11:34:20.244Z,29.22
2022-10-17T11:37:30.681Z,28.94
2022-10-17T11:40:38.401Z,28.72
2022-10-17T11:43:50.218Z,28.80
2022-10-17T11:47:12.389Z,28.92
2022-10-17T11:54:15.179Z,29.52
2022-10-17T11:57:34.813Z,29.44
2022-10-17T12:00:51.511Z,29.34
2022-10-17T12:04:31.709Z,29.48
2022-10-17T12:07:48.342Z,29.38
2022-10-17T12:11:13.796Z,29.05
2022-10-17T12:14:35.352Z,29.09
2022-10-17T12:17:40.937Z,29.22
2022-10-17T12:20:43.637Z,29.32
2022-10-17T12:23:54.298Z,29.45
2022-10-17T12:26:57.197Z,29.58
2022-10-17T12:30:11.586Z,29.59
2022-10-17T12:33:29.539Z,29.51
2022-10-17T12:36:32.160Z,29.36
2022-10-17T12:39:42.076Z,29.26
2022-10-17T12:42:49.031Z,29.26
2022-10-17T12:45:53.019Z,28.96
2022-10-17T12:49:01.706Z,28.72
2022-10-17T12:52:27.452Z,28.18
2022-10-17T12:55:30.240Z,27.55
2022-10-17T12:58:35.455Z,27.76
2022-10-17T13:01:39.970Z,27.63
2022-10-17T13:04:50.648Z,27.11
2022-10-17T13:07:58.033Z,27.17
2022-10-17T13:11:02.833Z,27.25
2022-10-17T13:14:13.376Z,26.92
2022-10-17T13:17:28.445Z,26.51
2022-10-17T13:20:32.481Z,26.10
2022-10-17T13:23:37.681Z,25.69
2022-10-17T13:26:45.693Z,25.44
2022-10-17T13:29:48.354Z,25.26
2022-10-17T13:32:51.578Z,24.91
2022-10-17T13:36:00.297Z,24.88
2022-10-17T13:39:12.181Z,24.82
2022-10-17T13:42:36.794Z,24.59
2022-10-17T13:45:40.371Z,24.39
2022-10-17T13:48:43.631Z,24.28
2022-10-17T13:51:49.762Z,24.26
2022-10-17T13:54:53.822Z,24.19
2022-10-17T13:57:57.371Z,24.16
2022-10-17T14:01:00.224Z,24.20
2022-10-17T14:04:09.300Z,24.15
2022-10-17T14:07:52.032Z,23.85
2022-10-17T14:11:00.232Z,23.91
2022-10-17T14:14:05.628Z,23.75
2022-10-17T14:17:22.066Z,23.63
2022-10-17T14:21:07.831Z,23.49
2022-10-17T14:23:47.740Z,23.31
2022-10-17T14:26:56.456Z,23.11
2022-10-17T14:30:02.685Z,22.90
2022-10-17T14:33:13.998Z,22.77
2022-10-17T14:36:16.952Z,22.74
2022-10-17T14:39:23.243Z,22.54
2022-10-17T14:42:26.758Z,22.41
2022-10-17T14:45:37.093Z,22.28
2022-10-17T14:48:42.434Z,22.08
2022-10-17T14:52:24.368Z,21.97
2022-10-17T14:55:29.519Z,21.97
2022-10-17T14:58:34.627Z,21.91
2022-10-17T15:01:37.454Z,21.78
2022-10-17T15:04:40.031Z,21.74
2022-10-17T15:07:43.449Z,21.64
2022-10-17T15:10:47.580Z,21.56
2022-10-17T15:13:51.065Z,21.47
2022-10-17T15:16:53.772Z,21.42
2022-10-17T15:19:57.237Z,21.36
2022-10-17T15:23:02.473Z,21.29
2022-10-17T15:26:22.379Z,21.28
2022-10-17T15:29:25.007Z,21.14
2022-10-17T15:32:27.750Z,21.06
2022-10-17T15:35:31.000Z,21.02
2022-10-17T15:38:33.869Z,20.91
2022-10-17T15:41:36.516Z,20.87
2022-10-17T15:44:44.385Z,20.78
2022-10-17T15:47:52.688Z,20.82
2022-10-17T15:50:55.417Z,20.69
2022-10-17T15:54:01.310Z,20.63
2022-10-17T15:57:04.581Z,20.64
2022-10-17T16:00:17.148Z,20.48
2022-10-17T16:06:23.172Z,20.31
2022-10-17T16:09:25.992Z,20.23
2022-10-17T16:12:31.061Z,20.16
2022-10-17T16:15:34.157Z,20.08
2022-10-17T16:18:36.874Z,20.06
2022-10-17T16:21:41.544Z,19.97
2022-10-17T16:24:44.154Z,19.91
2022-10-17T16:27:48.712Z,19.90
2022-10-17T16:30:51.357Z,19.79
2022-10-17T16:33:55.941Z,19.76
2022-10-17T16:36:58.576Z,19.66
2022-10-17T16:40:01.945Z,19.61
2022-10-17T16:43:05.106Z,19.58
2022-10-17T16:46:07.891Z,19.51
2022-10-17T16:49:10.659Z,19.50
2022-10-17T16:52:13.513Z,19.43
2022-10-17T16:55:18.926Z,19.40
2022-10-17T16:58:21.635Z,19.35
2022-10-17T17:01:25.739Z,19.31
2022-10-17T17:04:28.574Z,19.26
2022-10-17T17:07:31.484Z,19.21
2022-10-17T17:10:34.313Z,19.17
2022-10-17T17:13:37.496Z,19.09
2022-10-17T17:16:40.233Z,19.05
2022-10-17T17:19:42.938Z,19.00
2022-10-17T17:22:45.611Z,18.93
2022-10-17T17:25:48.431Z,18.88
2022-10-17T17:28:51.508Z,18.80
2022-10-17T17:31:54.160Z,18.74
2022-10-17T17:34:56.870Z,18.67
2022-10-17T17:37:59.585Z,18.61
2022-10-17T17:41:03.838Z,18.53
2022-10-17T17:44:10.089Z,18.46
2022-10-17T17:47:15.411Z,18.40
2022-10-17T17:50:18.207Z,18.32
2022-10-17T17:53:20.955Z,18.27
2022-10-17T17:56:26.727Z,18.21
2022-10-17T17:59:30.685Z,18.17
2022-10-17T18:02:36.432Z,18.11
2022-10-17T18:05:41.341Z,18.09
2022-10-17T18:08:46.720Z,18.05
2022-10-17T18:11:49.499Z,18.01
2022-10-17T18:14:52.769Z,17.96
2022-10-17T18:17:55.861Z,17.93
2022-10-17T18:21:01.239Z,17.90
2022-10-17T18:24:04.910Z,17.84
2022-10-17T18:27:07.696Z,17.82
2022-10-17T18:30:11.205Z,17.73
2022-10-17T18:33:14.428Z,17.66
2022-10-17T18:36:17.121Z,17.60
2022-10-17T18:39:20.142Z,17.60
2022-10-17T18:42:23.089Z,17.55
2022-10-17T18:45:27.819Z,17.48
2022-10-17T18:48:31.625Z,17.40
2022-10-17T18:51:34.339Z,17.31
2022-10-17T18:54:37.264Z,17.23
2022-10-17T18:57:40.069Z,17.18
2022-10-17T19:00:42.795Z,17.08
2022-10-17T19:03:48.225Z,17.04
2022-10-17T19:06:50.943Z,16.99
2022-10-17T19:09:53.586Z,16.93
2022-10-17T19:12:56.385Z,16.85
2022-10-17T19:15:59.008Z,16.83
2022-10-17T19:19:11.209Z,16.78
2022-10-17T19:22:14.402Z,16.74
2022-10-17T19:25:17.250Z,16.70
2022-10-17T19:28:19.986Z,16.63
2022-10-17T19:31:26.965Z,16.57
2022-10-17T19:34:30.085Z,16.54
2022-10-17T19:37:34.313Z,16.49
2022-10-17T19:40:41.077Z,16.45
2022-10-17T19:43:46.190Z,16.43
2022-10-17T19:46:49.316Z,16.38
2022-10-17T19:49:52.599Z,16.34
2022-10-17T19:52:55.479Z,16.27
2022-10-17T19:56:00.379Z,16.23
2022-10-17T19:59:04.905Z,16.22
2022-10-17T20:02:07.817Z,16.21
2022-10-17T20:05:20.952Z,16.19
2022-10-17T20:11:29.416Z,16.05
2022-10-17T20:14:31.777Z,15.99
2022-10-17T20:20:44.222Z,15.93
2022-10-17T20:23:50.680Z,15.88
2022-10-17T20:26:53.209Z,15.85
2022-10-17T20:30:01.654Z,15.79
2022-10-17T20:33:04.258Z,15.77
2022-10-17T20:36:08.281Z,15.74
2022-10-17T20:39:13.360Z,15.67
2022-10-17T20:42:21.317Z,15.63
2022-10-17T20:45:37.642Z,15.61
2022-10-17T20:49:01.512Z,15.58
2022-10-17T20:52:04.102Z,15.53
2022-10-17T20:55:07.351Z,15.54
2022-10-17T20:58:11.011Z,15.54
2022-10-17T21:01:13.951Z,15.52
2022-10-17T21:07:40.859Z,15.53
2022-10-17T21:10:44.536Z,15.48
2022-10-17T21:13:53.237Z,15.47
2022-10-17T21:16:55.718Z,15.44
2022-10-17T21:19:58.915Z,15.37
2022-10-17T21:23:01.407Z,15.34
2022-10-17T21:26:04.473Z,15.30
2022-10-17T21:29:09.038Z,15.26
2022-10-17T21:32:25.167Z,15.20
2022-10-17T21:35:34.425Z,15.19
2022-10-17T21:38:38.495Z,15.14
2022-10-17T21:41:42.133Z,15.11
2022-10-17T21:44:45.083Z,15.08
2022-10-17T21:48:11.145Z,15.09
2022-10-17T21:51:12.645Z,15.02
2022-10-17T21:54:16.405Z,14.98
2022-10-17T21:57:19.392Z,14.97
2022-10-17T22:00:22.025Z,14.95
2022-10-17T22:03:24.931Z,14.94
2022-10-17T22:06:39.771Z,14.94
2022-10-17T22:09:43.658Z,14.92
2022-10-17T22:12:46.094Z,14.88
2022-10-17T22:15:49.039Z,14.87
2022-10-17T22:18:51.892Z,14.88
2022-10-17T22:21:55.155Z,14.82
2022-10-17T22:24:57.600Z,14.80
2022-10-17T22:28:00.974Z,14.74
2022-10-17T22:31:03.972Z,14.70
2022-10-17T22:34:07.478Z,14.68
2022-10-17T22:37:09.997Z,14.67
2022-10-17T22:40:12.969Z,14.64
2022-10-17T22:43:15.513Z,14.63
2022-10-17T22:46:18.466Z,14.60
2022-10-17T22:49:20.943Z,14.54
2022-10-17T22:52:23.881Z,14.53
2022-10-17T22:55:26.601Z,14.54
2022-10-17T22:58:30.348Z,14.49
2022-10-17T23:01:32.808Z,14.45
2022-10-17T23:04:35.808Z,14.44
2022-10-17T23:07:38.142Z,14.43
2022-10-17T23:10:41.683Z,14.39
2022-10-17T23:13:44.160Z,14.38
2022-10-17T23:16:47.370Z,14.37
2022-10-17T23:19:51.867Z,14.32
2022-10-17T23:22:58.522Z,14.30
2022-10-17T23:26:07.089Z,14.32
2022-10-17T23:29:10.131Z,14.33
2022-10-17T23:32:12.605Z,14.27
2022-10-17T23:35:15.558Z,14.24
2022-10-17T23:38:17.972Z,14.27
2022-10-17T23:41:21.000Z,14.19
2022-10-17T23:44:23.795Z,14.16
2022-10-17T23:47:27.849Z,14.12
2022-10-17T23:50:30.524Z,14.09
2022-10-17T23:53:33.629Z,14.06
2022-10-17T23:56:37.228Z,14.02
2022-10-17T23:59:40.136Z,14.00
